sensor_id;sensor_type;location;lat;lon;timestamp;pressure;altitude;pressure_sealevel;temperature;humidity
55070;BME280;40967;52.070;8.596;2023-02-20T00:01:22;101387.94;;;5.94;100.00
55070;BME280;40967;52.070;8.596;2023-02-20T00:03:48;101377.16;;;5.94;100.00
55070;BME280;40967;52.070;8.596;2023-02-20T00:06:13;101385.44;;;5.93;100.00
55070;BME280;40967;52.070;8.596;2023-02-20T00:08:39;101361.69;;;5.83;100.00
55070;BME280;40967;52.070;8.596;2023-02-20T00:11:05;101377.78;;;5.90;100.00
55070;BME280;40967;52.070;8.596;2023-02-20T00:13:31;101369.50;;;5.91;100.00
55070;BME280;40967;52.070;8.596;2023-02-20T00:15:56;101369.66;;;5.96;100.00
55070;BME280;40967;52.070;8.596;2023-02-20T00:18:22;101369.66;;;5.96;100.00
55070;BME280;40967;52.070;8.596;2023-02-20T00:20:48;101366.38;;;5.94;100.00
55070;BME280;40967;52.070;8.596;2023-02-20T00:23:13;101370.28;;;5.98;100.00
55070;BME280;40967;52.070;8.596;2023-02-20T00:25:38;101358.31;;;5.94;100.00
55070;BME280;40967;52.070;8.596;2023-02-20T00:28:04;101362.84;;;5.94;100.00
55070;BME280;40967;52.070;8.596;2023-02-20T00:30:29;101363.50;;;5.89;100.00
55070;BME280;40967;52.070;8.596;2023-02-20T00:32:55;101360.63;;;5.84;100.00
55070;BME280;40967;52.070;8.596;2023-02-20T00:35:22;101362.91;;;5.87;100.00
55070;BME280;40967;52.070;8.596;2023-02-20T00:37:48;101360.00;;;5.89;100.00
55070;BME280;40967;52.070;8.596;2023-02-20T00:40:15;101343.22;;;5.87;100.00
55070;BME280;40967;52.070;8.596;2023-02-20T00:42:41;101355.25;;;5.84;100.00
55070;BME280;40967;52.070;8.596;2023-02-20T00:45:07;101337.22;;;5.85;100.00
55070;BME280;40967;52.070;8.596;2023-02-20T00:47:32;101334.75;;;5.83;100.00
55070;BME280;40967;52.070;8.596;2023-02-20T00:49:58;101326.03;;;5.81;100.00
55070;BME280;40967;52.070;8.596;2023-02-20T00:52:23;101324.97;;;5.82;100.00
55070;BME280;40967;52.070;8.596;2023-02-20T00:54:49;101314.03;;;5.77;100.00
55070;BME280;40967;52.070;8.596;2023-02-20T00:57:14;101327.09;;;5.80;100.00
55070;BME280;40967;52.070;8.596;2023-02-20T00:59:40;101320.66;;;5.81;100.00
55070;BME280;40967;52.070;8.596;2023-02-20T01:02:05;101315.91;;;5.83;100.00
55070;BME280;40967;52.070;8.596;2023-02-20T01:04:31;101301.38;;;5.84;100.00
55070;BME280;40967;52.070;8.596;2023-02-20T01:06:57;101301.41;;;5.77;100.00
55070;BME280;40967;52.070;8.596;2023-02-20T01:09:22;101296.63;;;5.79;100.00
55070;BME280;40967;52.070;8.596;2023-02-20T01:11:48;101276.78;;;5.74;100.00
55070;BME280;40967;52.070;8.596;2023-02-20T01:14:13;101283.84;;;5.75;100.00
55070;BME280;40967;52.070;8.596;2023-02-20T01:16:45;101287.56;;;5.74;100.00
55070;BME280;40967;52.070;8.596;2023-02-20T01:19:11;101298.13;;;5.75;100.00
55070;BME280;40967;52.070;8.596;2023-02-20T01:21:37;101309.50;;;5.77;100.00
55070;BME280;40967;52.070;8.596;2023-02-20T01:24:02;101307.03;;;5.76;100.00
55070;BME280;40967;52.070;8.596;2023-02-20T01:26:28;101302.31;;;5.71;100.00
55070;BME280;40967;52.070;8.596;2023-02-20T01:28:54;101283.72;;;5.63;100.00
55070;BME280;40967;52.070;8.596;2023-02-20T01:31:19;101300.00;;;5.75;100.00
55070;BME280;40967;52.070;8.596;2023-02-20T01:33:44;101284.72;;;5.69;100.00
55070;BME280;40967;52.070;8.596;2023-02-20T01:36:10;101295.19;;;5.77;100.00
55070;BME280;40967;52.070;8.596;2023-02-20T01:38:36;101270.19;;;5.70;100.00
55070;BME280;40967;52.070;8.596;2023-02-20T01:41:04;101267.88;;;5.73;100.00
55070;BME280;40967;52.070;8.596;2023-02-20T01:43:29;101257.13;;;5.73;100.00
55070;BME280;40967;52.070;8.596;2023-02-20T01:49:03;101218.63;;;5.48;100.00
55070;BME280;40967;52.070;8.596;2023-02-20T01:51:34;101256.94;;;5.68;100.00
55070;BME280;40967;52.070;8.596;2023-02-20T01:54:05;101231.16;;;5.61;100.00
55070;BME280;40967;52.070;8.596;2023-02-20T01:56:32;101225.31;;;5.64;100.00
55070;BME280;40967;52.070;8.596;2023-02-20T01:58:57;101220.81;;;5.58;100.00
55070;BME280;40967;52.070;8.596;2023-02-20T02:01:23;101224.50;;;5.63;100.00
55070;BME280;40967;52.070;8.596;2023-02-20T02:03:53;101232.94;;;5.67;100.00
55070;BME280;40967;52.070;8.596;2023-02-20T02:06:21;101226.31;;;5.69;100.00
55070;BME280;40967;52.070;8.596;2023-02-20T02:08:47;101222.56;;;5.70;100.00
55070;BME280;40967;52.070;8.596;2023-02-20T02:11:16;101227.50;;;5.73;100.00
55070;BME280;40967;52.070;8.596;2023-02-20T02:13:43;101205.56;;;5.70;100.00
55070;BME280;40967;52.070;8.596;2023-02-20T02:24:46;101192.56;;;5.67;100.00
55070;BME280;40967;52.070;8.596;2023-02-20T02:27:29;101180.78;;;5.68;100.00
55070;BME280;40967;52.070;8.596;2023-02-20T02:30:26;101184.56;;;5.60;100.00
55070;BME280;40967;52.070;8.596;2023-02-20T02:36:36;101194.22;;;5.68;100.00
55070;BME280;40967;52.070;8.596;2023-02-20T02:42:01;101196.09;;;5.67;100.00
55070;BME280;40967;52.070;8.596;2023-02-20T02:47:03;101179.03;;;5.73;100.00
55070;BME280;40967;52.070;8.596;2023-02-20T02:49:50;101167.47;;;5.73;100.00
55070;BME280;40967;52.070;8.596;2023-02-20T02:52:20;101172.84;;;5.73;100.00
55070;BME280;40967;52.070;8.596;2023-02-20T02:55:15;101169.41;;;5.66;100.00
55070;BME280;40967;52.070;8.596;2023-02-20T02:57:41;101168.06;;;5.75;100.00
55070;BME280;40967;52.070;8.596;2023-02-20T03:03:29;101149.38;;;5.80;100.00
55070;BME280;40967;52.070;8.596;2023-02-20T03:06:00;101134.44;;;5.84;100.00
55070;BME280;40967;52.070;8.596;2023-02-20T03:11:01;101135.25;;;5.85;100.00
55070;BME280;40967;52.070;8.596;2023-02-20T03:13:29;101119.72;;;5.87;100.00
55070;BME280;40967;52.070;8.596;2023-02-20T03:16:19;101119.94;;;5.85;100.00
55070;BME280;40967;52.070;8.596;2023-02-20T03:18:46;101112.09;;;5.84;100.00
55070;BME280;40967;52.070;8.596;2023-02-20T03:21:16;101109.56;;;5.82;100.00
55070;BME280;40967;52.070;8.596;2023-02-20T03:23:45;101116.00;;;5.81;100.00
55070;BME280;40967;52.070;8.596;2023-02-20T03:26:27;101107.31;;;5.79;100.00
55070;BME280;40967;52.070;8.596;2023-02-20T03:29:02;101103.00;;;5.78;100.00
55070;BME280;40967;52.070;8.596;2023-02-20T03:31:34;101112.88;;;5.84;100.00
55070;BME280;40967;52.070;8.596;2023-02-20T03:34:07;101109.41;;;5.84;100.00
55070;BME280;40967;52.070;8.596;2023-02-20T03:39:46;101112.00;;;5.90;100.00
55070;BME280;40967;52.070;8.596;2023-02-20T03:42:33;101114.09;;;5.88;100.00
55070;BME280;40967;52.070;8.596;2023-02-20T03:45:19;101114.94;;;5.89;100.00
55070;BME280;40967;52.070;8.596;2023-02-20T03:47:50;101122.09;;;5.95;100.00
55070;BME280;40967;52.070;8.596;2023-02-20T03:50:17;101127.84;;;5.98;100.00
55070;BME280;40967;52.070;8.596;2023-02-20T03:53:02;101112.75;;;5.97;100.00
55070;BME280;40967;52.070;8.596;2023-02-20T03:55:28;101084.31;;;5.83;100.00
55070;BME280;40967;52.070;8.596;2023-02-20T03:57:57;101095.16;;;5.95;100.00
55070;BME280;40967;52.070;8.596;2023-02-20T04:00:27;101096.75;;;6.02;100.00
55070;BME280;40967;52.070;8.596;2023-02-20T04:02:59;101078.63;;;5.91;100.00
55070;BME280;40967;52.070;8.596;2023-02-20T04:05:30;101089.13;;;5.99;100.00
55070;BME280;40967;52.070;8.596;2023-02-20T04:08:09;101104.59;;;6.04;100.00
55070;BME280;40967;52.070;8.596;2023-02-20T04:10:40;101090.16;;;5.98;100.00
55070;BME280;40967;52.070;8.596;2023-02-20T04:13:08;101089.13;;;5.99;100.00
55070;BME280;40967;52.070;8.596;2023-02-20T04:15:36;101072.63;;;6.07;100.00
55070;BME280;40967;52.070;8.596;2023-02-20T04:18:07;101080.72;;;6.07;100.00
55070;BME280;40967;52.070;8.596;2023-02-20T04:20:33;101064.31;;;6.09;100.00
55070;BME280;40967;52.070;8.596;2023-02-20T04:23:14;101067.84;;;6.09;100.00
55070;BME280;40967;52.070;8.596;2023-02-20T04:25:46;101067.03;;;6.09;100.00
55070;BME280;40967;52.070;8.596;2023-02-20T04:28:12;101054.63;;;6.08;100.00
55070;BME280;40967;52.070;8.596;2023-02-20T04:30:38;101053.78;;;6.07;100.00
55070;BME280;40967;52.070;8.596;2023-02-20T04:33:04;101045.09;;;6.05;100.00
55070;BME280;40967;52.070;8.596;2023-02-20T04:35:30;101046.16;;;6.04;100.00
55070;BME280;40967;52.070;8.596;2023-02-20T04:37:55;101032.94;;;6.03;100.00
55070;BME280;40967;52.070;8.596;2023-02-20T04:40:22;101033.28;;;6.06;100.00
55070;BME280;40967;52.070;8.596;2023-02-20T04:42:48;101036.28;;;5.98;100.00
55070;BME280;40967;52.070;8.596;2023-02-20T04:45:14;101041.00;;;6.03;100.00
55070;BME280;40967;52.070;8.596;2023-02-20T04:47:42;101021.47;;;5.89;100.00
55070;BME280;40967;52.070;8.596;2023-02-20T04:50:07;101031.13;;;5.97;100.00
55070;BME280;40967;52.070;8.596;2023-02-20T04:52:33;101030.09;;;5.98;100.00
55070;BME280;40967;52.070;8.596;2023-02-20T04:54:58;101012.50;;;5.95;100.00
55070;BME280;40967;52.070;8.596;2023-02-20T04:57:24;101007.47;;;5.99;100.00
55070;BME280;40967;52.070;8.596;2023-02-20T04:59:49;101001.81;;;5.89;100.00
55070;BME280;40967;52.070;8.596;2023-02-20T05:02:14;101024.09;;;5.96;100.00
55070;BME280;40967;52.070;8.596;2023-02-20T05:04:40;101009.22;;;5.93;100.00
55070;BME280;40967;52.070;8.596;2023-02-20T05:07:05;101005.69;;;5.93;100.00
55070;BME280;40967;52.070;8.596;2023-02-20T05:09:31;101006.66;;;5.98;100.00
55070;BME280;40967;52.070;8.596;2023-02-20T05:11:56;101004.19;;;5.97;100.00
55070;BME280;40967;52.070;8.596;2023-02-20T05:14:22;101003.97;;;5.98;100.00
55070;BME280;40967;52.070;8.596;2023-02-20T05:16:48;100993.41;;;5.97;100.00
55070;BME280;40967;52.070;8.596;2023-02-20T05:19:15;101008.97;;;5.95;100.00
55070;BME280;40967;52.070;8.596;2023-02-20T05:21:45;100999.88;;;5.96;100.00
55070;BME280;40967;52.070;8.596;2023-02-20T05:24:30;101003.34;;;5.96;100.00
55070;BME280;40967;52.070;8.596;2023-02-20T05:26:56;100996.13;;;5.97;100.00
55070;BME280;40967;52.070;8.596;2023-02-20T05:29:22;100992.38;;;5.98;100.00
55070;BME280;40967;52.070;8.596;2023-02-20T05:31:47;100992.94;;;6.00;100.00
55070;BME280;40967;52.070;8.596;2023-02-20T05:34:13;100999.63;;;5.97;100.00
55070;BME280;40967;52.070;8.596;2023-02-20T05:36:38;100984.88;;;6.00;100.00
55070;BME280;40967;52.070;8.596;2023-02-20T05:39:04;100964.50;;;5.92;100.00
55070;BME280;40967;52.070;8.596;2023-02-20T05:41:30;100987.34;;;6.01;100.00
55070;BME280;40967;52.070;8.596;2023-02-20T05:43:56;100973.31;;;5.99;100.00
55070;BME280;40967;52.070;8.596;2023-02-20T05:46:25;100964.03;;;5.95;100.00
55070;BME280;40967;52.070;8.596;2023-02-20T05:48:51;100969.09;;;6.03;100.00
55070;BME280;40967;52.070;8.596;2023-02-20T05:51:22;100951.63;;;5.94;100.00
55070;BME280;40967;52.070;8.596;2023-02-20T05:53:48;100953.84;;;5.97;100.00
55070;BME280;40967;52.070;8.596;2023-02-20T05:56:13;100953.72;;;5.92;100.00
55070;BME280;40967;52.070;8.596;2023-02-20T05:58:41;100963.69;;;6.03;100.00
55070;BME280;40967;52.070;8.596;2023-02-20T06:01:07;100955.25;;;6.00;100.00
55070;BME280;40967;52.070;8.596;2023-02-20T06:03:32;100958.88;;;5.94;100.00
55070;BME280;40967;52.070;8.596;2023-02-20T06:05:58;100947.59;;;5.85;100.00
55070;BME280;40967;52.070;8.596;2023-02-20T06:08:23;100957.94;;;6.00;100.00
55070;BME280;40967;52.070;8.596;2023-02-20T06:10:48;100970.59;;;5.99;100.00
55070;BME280;40967;52.070;8.596;2023-02-20T06:13:17;100966.84;;;6.00;100.00
55070;BME280;40967;52.070;8.596;2023-02-20T06:15:46;100961.00;;;6.03;100.00
55070;BME280;40967;52.070;8.596;2023-02-20T06:18:11;100954.22;;;6.01;100.00
55070;BME280;40967;52.070;8.596;2023-02-20T06:20:36;100953.63;;;5.99;100.00
55070;BME280;40967;52.070;8.596;2023-02-20T06:23:02;100960.50;;;5.95;100.00
55070;BME280;40967;52.070;8.596;2023-02-20T06:25:29;100962.75;;;5.98;100.00
55070;BME280;40967;52.070;8.596;2023-02-20T06:27:55;100957.38;;;5.98;100.00
55070;BME280;40967;52.070;8.596;2023-02-20T06:30:21;100961.22;;;6.02;100.00
55070;BME280;40967;52.070;8.596;2023-02-20T06:32:46;100970.97;;;6.03;100.00
55070;BME280;40967;52.070;8.596;2023-02-20T06:35:21;100976.34;;;6.03;100.00
55070;BME280;40967;52.070;8.596;2023-02-20T06:37:46;100976.78;;;6.00;100.00
55070;BME280;40967;52.070;8.596;2023-02-20T06:40:12;100990.25;;;6.00;100.00
55070;BME280;40967;52.070;8.596;2023-02-20T06:42:38;100994.25;;;5.97;100.00
55070;BME280;40967;52.070;8.596;2023-02-20T06:45:03;100995.06;;;5.98;100.00
55070;BME280;40967;52.070;8.596;2023-02-20T06:47:29;100981.81;;;5.96;100.00
55070;BME280;40967;52.070;8.596;2023-02-20T06:49:54;100986.41;;;5.96;100.00
55070;BME280;40967;52.070;8.596;2023-02-20T06:52:20;100984.31;;;5.98;100.00
55070;BME280;40967;52.070;8.596;2023-02-20T06:54:45;100999.63;;;5.97;100.00
55070;BME280;40967;52.070;8.596;2023-02-20T06:57:11;100991.56;;;5.97;100.00
55070;BME280;40967;52.070;8.596;2023-02-20T06:59:36;100982.88;;;5.95;100.00
55070;BME280;40967;52.070;8.596;2023-02-20T07:02:15;100979.13;;;5.96;100.00
55070;BME280;40967;52.070;8.596;2023-02-20T07:04:41;100983.25;;;5.99;100.00
55070;BME280;40967;52.070;8.596;2023-02-20T07:07:16;100989.47;;;5.99;100.00
55070;BME280;40967;52.070;8.596;2023-02-20T07:09:42;100983.47;;;5.97;100.00
55070;BME280;40967;52.070;8.596;2023-02-20T07:12:10;100985.72;;;6.00;100.00
55070;BME280;40967;52.070;8.596;2023-02-20T07:14:36;100980.56;;;5.99;100.00
55070;BME280;40967;52.070;8.596;2023-02-20T07:17:02;100985.34;;;5.97;100.00
55070;BME280;40967;52.070;8.596;2023-02-20T07:19:27;100996.34;;;5.95;100.00
55070;BME280;40967;52.070;8.596;2023-02-20T07:21:52;100980.28;;;5.89;100.00
55070;BME280;40967;52.070;8.596;2023-02-20T07:24:18;100970.84;;;5.79;100.00
55070;BME280;40967;52.070;8.596;2023-02-20T07:26:44;100992.44;;;5.91;100.00
55070;BME280;40967;52.070;8.596;2023-02-20T07:29:13;101000.53;;;5.91;100.00
55070;BME280;40967;52.070;8.596;2023-02-20T07:31:42;100987.06;;;5.91;100.00
55070;BME280;40967;52.070;8.596;2023-02-20T07:34:11;100989.16;;;5.89;100.00
55070;BME280;40967;52.070;8.596;2023-02-20T07:36:36;100994.53;;;5.89;100.00
55070;BME280;40967;52.070;8.596;2023-02-20T07:39:03;101003.00;;;5.93;100.00
55070;BME280;40967;52.070;8.596;2023-02-20T07:41:31;100986.47;;;5.89;100.00
55070;BME280;40967;52.070;8.596;2023-02-20T07:44:00;100991.78;;;5.96;100.00
55070;BME280;40967;52.070;8.596;2023-02-20T07:46:27;100992.22;;;5.93;100.00
55070;BME280;40967;52.070;8.596;2023-02-20T07:48:53;100979.13;;;5.96;100.00
55070;BME280;40967;52.070;8.596;2023-02-20T07:51:19;100997.78;;;5.98;100.00
55070;BME280;40967;52.070;8.596;2023-02-20T07:53:48;101007.13;;;5.95;100.00
55070;BME280;40967;52.070;8.596;2023-02-20T07:56:18;100999.50;;;5.92;100.00
55070;BME280;40967;52.070;8.596;2023-02-20T07:58:44;100999.50;;;5.92;100.00
55070;BME280;40967;52.070;8.596;2023-02-20T08:01:09;101014.38;;;5.95;100.00
55070;BME280;40967;52.070;8.596;2023-02-20T08:03:35;101002.19;;;5.92;100.00
55070;BME280;40967;52.070;8.596;2023-02-20T08:06:00;100989.91;;;5.96;100.00
55070;BME280;40967;52.070;8.596;2023-02-20T08:08:27;100995.88;;;5.98;100.00
55070;BME280;40967;52.070;8.596;2023-02-20T08:10:53;101008.31;;;5.99;100.00
55070;BME280;40967;52.070;8.596;2023-02-20T08:13:18;101012.50;;;5.95;100.00
55070;BME280;40967;52.070;8.596;2023-02-20T08:15:57;101006.66;;;5.98;100.00
55070;BME280;40967;52.070;8.596;2023-02-20T08:18:32;100997.53;;;5.99;100.00
55070;BME280;40967;52.070;8.596;2023-02-20T08:20:57;100991.56;;;5.97;100.00
55070;BME280;40967;52.070;8.596;2023-02-20T08:23:23;100982.53;;;6.03;100.00
55070;BME280;40967;52.070;8.596;2023-02-20T08:25:49;100991.22;;;6.05;100.00
55070;BME280;40967;52.070;8.596;2023-02-20T08:28:14;100993.19;;;5.98;100.00
55070;BME280;40967;52.070;8.596;2023-02-20T08:30:40;100985.94;;;5.99;100.00
55070;BME280;40967;52.070;8.596;2023-02-20T08:33:06;100990.84;;;6.02;100.00
55070;BME280;40967;52.070;8.596;2023-02-20T08:35:40;100971.03;;;5.96;100.00
55070;BME280;40967;52.070;8.596;2023-02-20T08:38:23;100966.38;;;6.03;100.00
55070;BME280;40967;52.070;8.596;2023-02-20T08:40:49;100969.53;;;6.00;100.00
55070;BME280;40967;52.070;8.596;2023-02-20T08:43:15;100958.31;;;6.03;100.00
55070;BME280;40967;52.070;8.596;2023-02-20T08:45:40;100965.13;;;6.06;100.00
55070;BME280;40967;52.070;8.596;2023-02-20T08:48:06;100972.50;;;6.10;100.00
55070;BME280;40967;52.070;8.596;2023-02-20T08:50:33;100960.75;;;6.05;100.00
55070;BME280;40967;52.070;8.596;2023-02-20T08:53:02;100984.81;;;6.06;100.00
55070;BME280;40967;52.070;8.596;2023-02-20T08:55:27;100978.59;;;6.06;100.00
55070;BME280;40967;52.070;8.596;2023-02-20T08:57:53;100976.44;;;5.96;100.00
55070;BME280;40967;52.070;8.596;2023-02-20T09:00:21;101000.13;;;6.06;100.00
55070;BME280;40967;52.070;8.596;2023-02-20T09:03:00;100976.94;;;6.05;100.00
55070;BME280;40967;52.070;8.596;2023-02-20T09:05:36;100964.63;;;5.97;100.00
55070;BME280;40967;52.070;8.596;2023-02-20T09:08:02;100978.59;;;6.06;100.00
55070;BME280;40967;52.070;8.596;2023-02-20T09:10:27;100981.66;;;6.09;100.00
55070;BME280;40967;52.070;8.596;2023-02-20T09:12:53;100978.13;;;6.09;100.00
55070;BME280;40967;52.070;8.596;2023-02-20T09:15:19;100956.31;;;5.99;100.00
55070;BME280;40967;52.070;8.596;2023-02-20T09:17:49;100973.66;;;6.03;100.00
55070;BME280;40967;52.070;8.596;2023-02-20T09:20:16;100979.19;;;6.08;100.00
55070;BME280;40967;52.070;8.596;2023-02-20T09:22:42;100978.50;;;6.12;100.00
55070;BME280;40967;52.070;8.596;2023-02-20T09:25:10;100958.66;;;6.07;100.00
55070;BME280;40967;52.070;8.596;2023-02-20T09:27:36;100978.84;;;6.16;100.00
55070;BME280;40967;52.070;8.596;2023-02-20T09:30:02;100970.16;;;6.14;100.00
55070;BME280;40967;52.070;8.596;2023-02-20T09:32:28;100972.63;;;6.15;100.00
55070;BME280;40967;52.070;8.596;2023-02-20T09:34:54;100963.16;;;6.13;100.00
55070;BME280;40967;52.070;8.596;2023-02-20T09:37:23;100951.19;;;6.09;100.00
55070;BME280;40967;52.070;8.596;2023-02-20T09:39:49;100946.16;;;6.12;100.00
55070;BME280;40967;52.070;8.596;2023-02-20T09:44:52;100935.38;;;6.12;100.00
55070;BME280;40967;52.070;8.596;2023-02-20T09:50:01;100933.53;;;6.24;100.00
55070;BME280;40967;52.070;8.596;2023-02-20T09:52:29;100933.31;;;6.26;100.00
55070;BME280;40967;52.070;8.596;2023-02-20T09:55:02;100930.25;;;6.22;100.00
55070;BME280;40967;52.070;8.596;2023-02-20T09:57:29;100929.34;;;6.40;100.00
55070;BME280;40967;52.070;8.596;2023-02-20T10:00:20;100944.56;;;6.34;100.00
55070;BME280;40967;52.070;8.596;2023-02-20T10:03:11;100944.91;;;6.38;100.00
55070;BME280;40967;52.070;8.596;2023-02-20T10:05:38;100936.63;;;6.39;100.00
55070;BME280;40967;52.070;8.596;2023-02-20T10:08:03;100953.97;;;6.43;100.00
55070;BME280;40967;52.070;8.596;2023-02-20T10:10:33;100938.63;;;6.44;100.00
55070;BME280;40967;52.070;8.596;2023-02-20T10:18:56;100934.97;;;6.50;100.00
55070;BME280;40967;52.070;8.596;2023-02-20T10:33:02;100918.97;;;6.55;100.00
55070;BME280;40967;52.070;8.596;2023-02-20T10:35:34;100918.72;;;6.56;100.00
55070;BME280;40967;52.070;8.596;2023-02-20T10:38:06;100923.28;;;6.56;100.00
55070;BME280;40967;52.070;8.596;2023-02-20T10:43:30;100902.88;;;6.48;100.00
55070;BME280;40967;52.070;8.596;2023-02-20T10:48:57;100937.81;;;6.55;100.00
55070;BME280;40967;52.070;8.596;2023-02-20T10:51:28;100930.53;;;6.55;100.00
55070;BME280;40967;52.070;8.596;2023-02-20T10:54:02;100926.78;;;6.45;100.00
55070;BME280;40967;52.070;8.596;2023-02-20T10:56:46;100957.19;;;6.63;100.00
55070;BME280;40967;52.070;8.596;2023-02-20T10:59:27;100950.72;;;6.64;100.00
55070;BME280;40967;52.070;8.596;2023-02-20T11:01:57;100955.88;;;6.66;100.00
55070;BME280;40967;52.070;8.596;2023-02-20T11:04:34;100962.22;;;6.71;100.00
55070;BME280;40967;52.070;8.596;2023-02-20T11:07:04;100952.69;;;6.69;100.00
55070;BME280;40967;52.070;8.596;2023-02-20T11:09:42;100957.53;;;6.67;100.00
55070;BME280;40967;52.070;8.596;2023-02-20T11:12:20;100942.75;;;6.69;100.00
55070;BME280;40967;52.070;8.596;2023-02-20T11:14:49;100925.63;;;6.64;100.00
55070;BME280;40967;52.070;8.596;2023-02-20T11:17:23;100954.13;;;6.71;100.00
55070;BME280;40967;52.070;8.596;2023-02-20T11:19:53;100960.59;;;6.70;100.00
55070;BME280;40967;52.070;8.596;2023-02-20T11:22:45;100932.78;;;6.70;100.00
55070;BME280;40967;52.070;8.596;2023-02-20T11:25:28;100935.59;;;6.75;100.00
55070;BME280;40967;52.070;8.596;2023-02-20T11:27:57;100933.00;;;6.80;100.00
55070;BME280;40967;52.070;8.596;2023-02-20T11:30:31;100930.66;;;6.83;100.00
55070;BME280;40967;52.070;8.596;2023-02-20T11:33:22;100922.59;;;6.83;100.00
55070;BME280;40967;52.070;8.596;2023-02-20T11:35:55;100920.00;;;6.88;100.00
55070;BME280;40967;52.070;8.596;2023-02-20T11:40:58;100900.88;;;6.90;100.00
55070;BME280;40967;52.070;8.596;2023-02-20T11:43:26;100886.34;;;6.91;100.00
55070;BME280;40967;52.070;8.596;2023-02-20T11:46:15;100870.97;;;6.91;100.00
55070;BME280;40967;52.070;8.596;2023-02-20T11:49:03;100893.38;;;6.92;100.00
55070;BME280;40967;52.070;8.596;2023-02-20T11:54:24;100899.13;;;6.96;100.00
55070;BME280;40967;52.070;8.596;2023-02-20T12:00:27;100877.75;;;7.06;100.00
55070;BME280;40967;52.070;8.596;2023-02-20T12:05:38;100862.59;;;7.16;100.00
55070;BME280;40967;52.070;8.596;2023-02-20T12:11:24;100830.31;;;7.21;100.00
55070;BME280;40967;52.070;8.596;2023-02-20T12:13:52;100825.06;;;7.15;100.00
55070;BME280;40967;52.070;8.596;2023-02-20T12:16:31;100846.75;;;7.20;100.00
55070;BME280;40967;52.070;8.596;2023-02-20T12:19:15;100861.31;;;7.19;100.00
55070;BME280;40967;52.070;8.596;2023-02-20T12:33:16;100879.13;;;7.20;100.00
55070;BME280;40967;52.070;8.596;2023-02-20T12:38:48;100865.28;;;7.28;100.00
55070;BME280;40967;52.070;8.596;2023-02-20T12:59:58;100868.16;;;7.38;100.00
55070;BME280;40967;52.070;8.596;2023-02-20T13:04:56;100869.91;;;7.44;100.00
55070;BME280;40967;52.070;8.596;2023-02-20T13:07:32;100879.31;;;7.41;100.00
55070;BME280;40967;52.070;8.596;2023-02-20T13:10:07;100868.75;;;7.40;100.00
55070;BME280;40967;52.070;8.596;2023-02-20T13:12:37;100854.19;;;7.41;100.00
55070;BME280;40967;52.070;8.596;2023-02-20T13:15:55;100853.47;;;7.45;100.00
55070;BME280;40967;52.070;8.596;2023-02-20T13:20:36;100851.38;;;7.36;100.00
55070;BME280;40967;52.070;8.596;2023-02-20T13:23:05;100863.94;;;7.42;100.00
55070;BME280;40967;52.070;8.596;2023-02-20T13:25:50;100845.13;;;7.47;100.00
55070;BME280;40967;52.070;8.596;2023-02-20T13:33:31;100838.56;;;7.43;100.00
55070;BME280;40967;52.070;8.596;2023-02-20T13:35:57;100823.44;;;7.42;100.00
55070;BME280;40967;52.070;8.596;2023-02-20T13:38:25;100830.06;;;7.51;100.00
55070;BME280;40967;52.070;8.596;2023-02-20T13:45:49;100823.44;;;7.42;100.00
55070;BME280;40967;52.070;8.596;2023-02-20T13:53:50;100833.44;;;7.58;100.00
55070;BME280;40967;52.070;8.596;2023-02-20T13:56:28;100830.41;;;7.54;100.00
55070;BME280;40967;52.070;8.596;2023-02-20T13:58:57;100820.28;;;7.61;100.00
55070;BME280;40967;52.070;8.596;2023-02-20T14:01:23;100823.97;;;7.55;100.00
55070;BME280;40967;52.070;8.596;2023-02-20T14:04:02;100806.94;;;7.55;100.00
55070;BME280;40967;52.070;8.596;2023-02-20T14:06:28;100809.13;;;7.41;100.00
55070;BME280;40967;52.070;8.596;2023-02-20T14:09:15;100804.41;;;7.48;100.00
55070;BME280;40967;52.070;8.596;2023-02-20T14:11:42;100806.59;;;7.51;100.00
55070;BME280;40967;52.070;8.596;2023-02-20T14:14:10;100814.69;;;7.51;100.00
55070;BME280;40967;52.070;8.596;2023-02-20T14:16:45;100805.09;;;7.44;100.00
55070;BME280;40967;52.070;8.596;2023-02-20T14:19:21;100821.97;;;7.51;100.00
55070;BME280;40967;52.070;8.596;2023-02-20T14:21:48;100805.69;;;7.46;100.00
55070;BME280;40967;52.070;8.596;2023-02-20T14:26:42;100792.28;;;7.51;100.00
55070;BME280;40967;52.070;8.596;2023-02-20T14:29:20;100798.75;;;7.50;100.00
55070;BME280;40967;52.070;8.596;2023-02-20T14:31:50;100790.50;;;7.56;100.00
55070;BME280;40967;52.070;8.596;2023-02-20T14:34:45;100803.50;;;7.59;100.00
55070;BME280;40967;52.070;8.596;2023-02-20T14:37:15;100791.06;;;7.58;100.00
55070;BME280;40967;52.070;8.596;2023-02-20T14:42:19;100799.34;;;7.52;100.00
55070;BME280;40967;52.070;8.596;2023-02-20T14:44:54;100799.91;;;7.54;100.00
55070;BME280;40967;52.070;8.596;2023-02-20T14:47:22;100791.59;;;7.44;100.00
55070;BME280;40967;52.070;8.596;2023-02-20T14:49:48;100801.44;;;7.50;100.00
55070;BME280;40967;52.070;8.596;2023-02-20T14:52:22;100795.97;;;7.45;100.00
55070;BME280;40967;52.070;8.596;2023-02-20T14:54:59;100795.13;;;7.44;100.00
55070;BME280;40967;52.070;8.596;2023-02-20T14:57:26;100789.72;;;7.44;100.00
55070;BME280;40967;52.070;8.596;2023-02-20T15:00:50;100793.84;;;7.47;100.00
55070;BME280;40967;52.070;8.596;2023-02-20T15:02:53;100795.13;;;7.44;100.00
55070;BME280;40967;52.070;8.596;2023-02-20T15:05:27;100792.69;;;7.43;100.00
55070;BME280;40967;52.070;8.596;2023-02-20T15:08:09;100788.56;;;7.40;100.00
55070;BME280;40967;52.070;8.596;2023-02-20T15:10:43;100805.69;;;7.46;100.00
55070;BME280;40967;52.070;8.596;2023-02-20T15:13:15;100791.41;;;7.34;100.00
55070;BME280;40967;52.070;8.596;2023-02-20T15:15:45;100793.41;;;7.38;100.00